Time;durP1;ratioP1;P1;durP2;ratioP2;P2;SDS_P1;SDS_P2;PMS_P1;PMS_P2;Temp;Humidity;BMP_temperature;BMP_pressure;BME280_temperature;BME280_humidity;BME280_pressure;Samples;Min_cycle;Max_cycle;Signal;HPM_P1;HPM_P2
2021/06/01 00:01:15;;;;;;;;;;;11.70;83.60;;;;;;5024324;28;19975;-69
2021/06/01 00:03:41;;;;;;;;;;;11.70;83.90;;;;;;5020264;28;21554;-68
2021/06/01 00:06:07;;;;;;;;;;;11.70;83.90;;;;;;5025574;28;20358;-68
2021/06/01 00:08:32;;;;;;;;;;;11.60;83.10;;;;;;5023733;28;20055;-69
2021/06/01 00:10:58;;;;;;;;;;;11.60;83.10;;;;;;5024568;28;20019;-68
2021/06/01 00:13:23;;;;;;;;;;;11.60;83.60;;;;;;5023470;28;20032;-68
2021/06/01 00:15:49;;;;;;;;;;;11.50;83.70;;;;;;5024451;28;19975;-69
2021/06/01 00:18:14;;;;;;;;;;;11.50;83.40;;;;;;5021449;28;20008;-69
2021/06/01 00:20:40;;;;;;;;;;;11.40;83.80;;;;;;5021221;28;19917;-69
2021/06/01 00:23:06;;;;;;;;;;;11.30;84.10;;;;;;5023562;28;19917;-69
2021/06/01 00:25:31;;;;;;;;;;;11.30;83.90;;;;;;5020675;28;19917;-68
2021/06/01 00:27:57;;;;;;;;;;;11.30;84.60;;;;;;5021373;28;19964;-68
2021/06/01 00:30:22;;;;;;;;;;;11.20;84.60;;;;;;5021013;28;19929;-68
2021/06/01 00:32:48;;;;;;;;;;;11.10;84.60;;;;;;5022368;28;20002;-68
2021/06/01 00:35:13;;;;;;;;;;;11.10;85.00;;;;;;5023843;28;19924;-68
2021/06/01 00:37:39;;;;;;;;;;;11.10;85.50;;;;;;5022894;28;19948;-69
2021/06/01 00:40:05;;;;;;;;;;;11.10;86.10;;;;;;5023101;28;20060;-68
2021/06/01 00:42:30;;;;;;;;;;;11.00;87.00;;;;;;5022034;28;19924;-69
2021/06/01 00:44:56;;;;;;;;;;;11.00;86.80;;;;;;5023345;28;20258;-68
2021/06/01 00:47:21;;;;;;;;;;;10.90;86.90;;;;;;5022785;28;19913;-68
2021/06/01 00:49:47;;;;;;;;;;;10.90;86.60;;;;;;5022254;28;20008;-68
2021/06/01 00:52:12;;;;;;;;;;;10.90;86.20;;;;;;5021913;28;19913;-68
2021/06/01 00:54:38;;;;;;;;;;;10.80;86.50;;;;;;5022768;28;20011;-69
2021/06/01 00:57:05;;;;;;;;;;;10.80;86.80;;;;;;5018574;28;19921;-68
2021/06/01 00:59:32;;;;;;;;;;;10.80;86.80;;;;;;5021881;28;20285;-68
2021/06/01 01:01:57;;;;;;;;;;;10.70;86.70;;;;;;5023459;28;19966;-68
2021/06/01 01:04:24;;;;;;;;;;;10.70;87.30;;;;;;5023354;28;20004;-69
2021/06/01 01:06:59;;;;;;;;;;;10.70;86.80;;;;;;5024471;28;19953;-69
2021/06/01 01:09:26;;;;;;;;;;;10.60;87.40;;;;;;5022348;28;19992;-69
2021/06/01 01:11:57;;;;;;;;;;;10.60;87.00;;;;;;5024493;28;19908;-67
2021/06/01 01:14:27;;;;;;;;;;;10.50;87.60;;;;;;5018640;28;19913;-68
2021/06/01 01:17:07;;;;;;;;;;;10.50;87.10;;;;;;5023885;28;20327;-69
2021/06/01 01:19:59;;;;;;;;;;;10.40;86.90;;;;;;5024894;28;19992;-69
2021/06/01 01:22:26;;;;;;;;;;;10.40;87.60;;;;;;5021583;28;19921;-69
2021/06/01 01:24:51;;;;;;;;;;;10.40;88.40;;;;;;5023186;28;20004;-68
2021/06/01 01:27:38;;;;;;;;;;;10.30;88.70;;;;;;5022064;28;20059;-68
2021/06/01 01:30:05;;;;;;;;;;;10.30;89.30;;;;;;5024494;28;20032;-69
2021/06/01 01:32:46;;;;;;;;;;;10.30;88.50;;;;;;5023317;28;19935;-69
2021/06/01 01:35:13;;;;;;;;;;;10.30;89.20;;;;;;5019598;28;19983;-69
2021/06/01 01:37:40;;;;;;;;;;;10.30;89.80;;;;;;5022319;28;20589;-68
2021/06/01 01:40:06;;;;;;;;;;;10.40;90.10;;;;;;5024482;28;19921;-68
2021/06/01 01:42:44;;;;;;;;;;;10.30;89.80;;;;;;5022121;28;19939;-69
2021/06/01 01:45:20;;;;;;;;;;;10.30;89.90;;;;;;5017115;28;20371;-69
2021/06/01 01:50:17;;;;;;;;;;;10.40;89.80;;;;;;5024430;28;19971;-68
2021/06/01 01:52:43;;;;;;;;;;;10.40;89.80;;;;;;5021171;28;19920;-67
2021/06/01 01:55:09;;;;;;;;;;;10.40;89.90;;;;;;5023691;28;19917;-68
2021/06/01 01:57:36;;;;;;;;;;;10.30;89.90;;;;;;5022158;28;20330;-68
2021/06/01 02:00:08;;;;;;;;;;;10.30;89.60;;;;;;5021858;28;19924;-69
2021/06/01 02:02:35;;;;;;;;;;;10.30;90.00;;;;;;5022406;28;19999;-68
2021/06/01 02:05:01;;;;;;;;;;;10.20;90.00;;;;;;5023514;28;20075;-69
2021/06/01 02:07:26;;;;;;;;;;;10.20;90.10;;;;;;5023121;28;20525;-68
2021/06/01 02:09:52;;;;;;;;;;;10.10;90.00;;;;;;5022712;28;20042;-69
2021/06/01 02:12:17;;;;;;;;;;;10.20;90.10;;;;;;5022078;28;19917;-68
2021/06/01 02:14:43;;;;;;;;;;;10.10;90.20;;;;;;5022391;28;19948;-68
2021/06/01 02:17:08;;;;;;;;;;;10.10;90.30;;;;;;5023218;28;20333;-69
2021/06/01 02:19:34;;;;;;;;;;;10.10;90.60;;;;;;5021967;28;20488;-68
2021/06/01 02:22:39;;;;;;;;;;;10.10;90.80;;;;;;5022018;28;19927;-68
2021/06/01 02:25:10;;;;;;;;;;;10.10;91.30;;;;;;5025082;28;19999;-68
2021/06/01 02:27:43;;;;;;;;;;;10.10;91.20;;;;;;5025177;28;19986;-69
2021/06/01 02:30:11;;;;;;;;;;;10.10;91.30;;;;;;5021419;28;19991;-69
2021/06/01 02:32:36;;;;;;;;;;;10.10;91.20;;;;;;5021766;28;20365;-68
2021/06/01 02:35:08;;;;;;;;;;;10.00;90.70;;;;;;5023494;28;19920;-68
2021/06/01 02:37:35;;;;;;;;;;;9.90;90.50;;;;;;5022823;28;20028;-68
2021/06/01 02:40:01;;;;;;;;;;;9.90;90.30;;;;;;5040774;28;19936;-67
2021/06/01 02:42:26;;;;;;;;;;;9.80;90.60;;;;;;5028153;28;19966;-68
2021/06/01 02:44:52;;;;;;;;;;;9.80;90.80;;;;;;5021287;28;19917;-68
2021/06/01 02:47:18;;;;;;;;;;;9.80;90.50;;;;;;5022509;28;19943;-69
2021/06/01 02:49:44;;;;;;;;;;;9.70;91.00;;;;;;5021316;28;19997;-69
2021/06/01 02:52:09;;;;;;;;;;;9.70;91.50;;;;;;5015531;28;19917;-68
2021/06/01 02:54:35;;;;;;;;;;;9.80;91.70;;;;;;5019841;28;20266;-69
2021/06/01 02:57:00;;;;;;;;;;;9.80;92.00;;;;;;5020797;28;19917;-68
2021/06/01 02:59:26;;;;;;;;;;;9.80;92.30;;;;;;5015967;28;19995;-69
2021/06/01 03:01:52;;;;;;;;;;;9.80;92.40;;;;;;5022043;28;20359;-68
2021/06/01 03:04:17;;;;;;;;;;;9.80;92.00;;;;;;5022731;28;20270;-69
2021/06/01 03:06:43;;;;;;;;;;;9.80;91.30;;;;;;5022780;28;20673;-68
2021/06/01 03:09:09;;;;;;;;;;;9.80;91.30;;;;;;5018152;28;20029;-68
2021/06/01 03:11:35;;;;;;;;;;;9.80;90.90;;;;;;5021577;28;19913;-68
2021/06/01 03:14:00;;;;;;;;;;;9.80;90.70;;;;;;5019104;28;19921;-69
2021/06/01 03:16:26;;;;;;;;;;;9.80;91.10;;;;;;5021087;28;19920;-68
2021/06/01 03:18:51;;;;;;;;;;;9.80;91.10;;;;;;5036066;28;19917;-69
2021/06/01 03:21:17;;;;;;;;;;;9.80;91.00;;;;;;5018405;28;19936;-68
2021/06/01 03:23:43;;;;;;;;;;;9.80;91.20;;;;;;5022607;28;19917;-68
2021/06/01 03:26:08;;;;;;;;;;;9.90;91.30;;;;;;5024182;28;20012;-68
2021/06/01 03:28:34;;;;;;;;;;;9.80;91.00;;;;;;5024197;28;20036;-68
2021/06/01 03:31:00;;;;;;;;;;;9.80;90.80;;;;;;5026231;28;20030;-69
2021/06/01 03:33:28;;;;;;;;;;;9.80;90.70;;;;;;5023296;28;19974;-68
2021/06/01 03:35:53;;;;;;;;;;;9.80;91.10;;;;;;5024767;28;20298;-70
2021/06/01 03:38:19;;;;;;;;;;;9.90;91.10;;;;;;5026914;28;19924;-68
2021/06/01 03:40:44;;;;;;;;;;;9.90;91.30;;;;;;5026419;28;19921;-69
2021/06/01 03:43:10;;;;;;;;;;;9.90;91.10;;;;;;5025371;28;20369;-68
2021/06/01 03:45:35;;;;;;;;;;;9.90;91.30;;;;;;5026011;28;19988;-68
2021/06/01 03:48:01;;;;;;;;;;;10.00;91.70;;;;;;5025715;28;19962;-69
2021/06/01 03:50:26;;;;;;;;;;;10.00;91.80;;;;;;5024203;28;20874;-68
2021/06/01 03:52:52;;;;;;;;;;;9.90;91.30;;;;;;5017715;28;19917;-69
2021/06/01 03:55:18;;;;;;;;;;;10.00;91.20;;;;;;5023369;28;20000;-69
2021/06/01 03:57:44;;;;;;;;;;;10.00;90.90;;;;;;5022713;28;19913;-69
2021/06/01 04:00:10;;;;;;;;;;;10.10;91.00;;;;;;5026389;28;19913;-69
2021/06/01 04:02:36;;;;;;;;;;;10.10;91.10;;;;;;5024766;28;19987;-69
2021/06/01 04:05:02;;;;;;;;;;;10.10;90.90;;;;;;5024667;28;19931;-69
2021/06/01 04:07:28;;;;;;;;;;;10.20;91.20;;;;;;5019822;28;19917;-66
2021/06/01 04:09:53;;;;;;;;;;;10.20;91.20;;;;;;5024329;28;19990;-68
2021/06/01 04:12:19;;;;;;;;;;;10.30;91.10;;;;;;5018811;28;19955;-69
2021/06/01 04:14:44;;;;;;;;;;;10.40;91.30;;;;;;5020271;28;19927;-67
2021/06/01 04:17:10;;;;;;;;;;;10.40;91.30;;;;;;5023004;28;19917;-69
2021/06/01 04:19:35;;;;;;;;;;;10.50;90.80;;;;;;5025022;28;19917;-68
2021/06/01 04:22:01;;;;;;;;;;;10.60;90.60;;;;;;5024295;28;19920;-70
2021/06/01 04:24:27;;;;;;;;;;;10.70;90.30;;;;;;5023682;28;19917;-69
2021/06/01 04:26:57;;;;;;;;;;;10.80;90.30;;;;;;5023195;28;20357;-69
2021/06/01 04:29:23;;;;;;;;;;;10.90;90.20;;;;;;5018581;28;19935;-70
2021/06/01 04:31:50;;;;;;;;;;;11.00;90.40;;;;;;5022828;28;19909;-70
2021/06/01 04:34:16;;;;;;;;;;;11.10;90.40;;;;;;5018257;28;20009;-71
2021/06/01 04:36:41;;;;;;;;;;;11.10;90.40;;;;;;5020105;28;19940;-73
2021/06/01 04:39:07;;;;;;;;;;;11.20;90.10;;;;;;5025824;28;20087;-69
2021/06/01 04:41:33;;;;;;;;;;;11.30;90.00;;;;;;5024239;28;20016;-69
2021/06/01 04:43:58;;;;;;;;;;;11.30;89.60;;;;;;5025649;28;19974;-70
2021/06/01 04:46:24;;;;;;;;;;;11.40;89.40;;;;;;5023763;28;19925;-70
2021/06/01 04:48:51;;;;;;;;;;;11.50;89.10;;;;;;5021563;28;19948;-70
2021/06/01 04:51:17;;;;;;;;;;;11.50;89.40;;;;;;5021615;28;19988;-70
2021/06/01 04:53:46;;;;;;;;;;;11.60;89.40;;;;;;5022853;28;20003;-69
2021/06/01 04:56:11;;;;;;;;;;;11.70;89.00;;;;;;5017391;28;20447;-73
2021/06/01 04:58:37;;;;;;;;;;;11.80;88.90;;;;;;5022476;28;19917;-70
2021/06/01 05:01:03;;;;;;;;;;;11.90;89.00;;;;;;5020836;28;19913;-69
2021/06/01 05:03:28;;;;;;;;;;;12.00;89.00;;;;;;5019195;28;19913;-69
2021/06/01 05:05:53;;;;;;;;;;;12.10;88.30;;;;;;5020073;28;19932;-69
2021/06/01 05:08:19;;;;;;;;;;;12.20;88.10;;;;;;5022319;28;20008;-69
2021/06/01 05:10:44;;;;;;;;;;;12.30;87.70;;;;;;5020332;28;19968;-70
2021/06/01 05:13:10;;;;;;;;;;;12.40;87.50;;;;;;5018432;28;19921;-70
2021/06/01 05:15:35;;;;;;;;;;;12.50;87.40;;;;;;5022828;28;20019;-69
2021/06/01 05:18:01;;;;;;;;;;;12.60;87.10;;;;;;5024304;28;19924;-71
2021/06/01 05:20:27;;;;;;;;;;;12.70;86.80;;;;;;5024060;28;19929;-70
2021/06/01 05:22:52;;;;;;;;;;;12.70;86.70;;;;;;5023040;28;19927;-72
2021/06/01 05:25:18;;;;;;;;;;;12.80;86.60;;;;;;5022932;28;20097;-70
2021/06/01 05:27:43;;;;;;;;;;;12.90;86.80;;;;;;5020034;28;20026;-70
2021/06/01 05:30:09;;;;;;;;;;;12.90;86.90;;;;;;5019438;28;19999;-71
2021/06/01 05:33:23;;;;;;;;;;;13.00;87.50;;;;;;5024345;28;19928;-70
2021/06/01 05:35:26;;;;;;;;;;;13.10;87.40;;;;;;5022316;28;19943;-70
2021/06/01 05:37:52;;;;;;;;;;;13.30;86.70;;;;;;5023072;28;20251;-71
2021/06/01 05:40:18;;;;;;;;;;;13.60;85.40;;;;;;5024240;28;19921;-72
2021/06/01 05:42:44;;;;;;;;;;;13.70;83.10;;;;;;5023088;28;20089;-70
2021/06/01 05:45:09;;;;;;;;;;;13.90;82.50;;;;;;5024811;28;19917;-70
2021/06/01 05:47:35;;;;;;;;;;;14.10;83.20;;;;;;5023993;28;20444;-71
2021/06/01 05:50:01;;;;;;;;;;;14.30;82.50;;;;;;5024458;28;19935;-70
2021/06/01 05:52:26;;;;;;;;;;;14.50;81.80;;;;;;5023309;28;19925;-70
2021/06/01 05:54:52;;;;;;;;;;;14.70;81.80;;;;;;5024346;28;19913;-70
2021/06/01 05:57:17;;;;;;;;;;;14.80;81.60;;;;;;5022991;28;20261;-70
2021/06/01 05:59:43;;;;;;;;;;;15.10;81.80;;;;;;5024546;28;19921;-72
2021/06/01 06:02:08;;;;;;;;;;;15.30;80.20;;;;;;5023572;28;19924;-68
2021/06/01 06:04:33;;;;;;;;;;;15.50;77.70;;;;;;5027536;28;19977;-70
2021/06/01 06:06:59;;;;;;;;;;;15.80;79.20;;;;;;5018169;28;19924;-71
2021/06/01 06:09:24;;;;;;;;;;;16.00;78.60;;;;;;5024519;28;19909;-70
2021/06/01 06:11:50;;;;;;;;;;;16.20;79.10;;;;;;5022745;28;19920;-71
2021/06/01 06:14:15;;;;;;;;;;;16.40;77.00;;;;;;5023970;28;19909;-70
2021/06/01 06:16:44;;;;;;;;;;;16.70;75.80;;;;;;5024165;28;19909;-70
2021/06/01 06:19:10;;;;;;;;;;;17.00;75.50;;;;;;5021022;28;19962;-70
2021/06/01 06:21:35;;;;;;;;;;;17.30;72.80;;;;;;5021566;28;20323;-71
2021/06/01 06:24:01;;;;;;;;;;;17.70;72.60;;;;;;5018292;28;20015;-71
2021/06/01 06:26:26;;;;;;;;;;;18.00;71.30;;;;;;5012455;28;20368;-70
2021/06/01 06:28:52;;;;;;;;;;;18.10;70.40;;;;;;5019968;28;19928;-70
2021/06/01 06:31:17;;;;;;;;;;;18.30;70.50;;;;;;5014157;28;20353;-70
2021/06/01 06:33:43;;;;;;;;;;;18.30;67.90;;;;;;5022513;28;20259;-71
2021/06/01 06:36:08;;;;;;;;;;;18.40;68.20;;;;;;5024176;28;20005;-70
2021/06/01 06:38:34;;;;;;;;;;;18.50;67.70;;;;;;5022885;28;19999;-70
2021/06/01 06:41:12;;;;;;;;;;;18.50;66.20;;;;;;5023449;28;20397;-70
2021/06/01 06:43:39;;;;;;;;;;;18.70;63.30;;;;;;5022557;28;20361;-71
2021/06/01 06:46:15;;;;;;;;;;;18.90;59.80;;;;;;5022618;28;20083;-70
2021/06/01 06:48:40;;;;;;;;;;;19.00;60.60;;;;;;5022573;28;19917;-69
2021/06/01 06:51:12;;;;;;;;;;;19.20;63.20;;;;;;5022134;28;19967;-71
2021/06/01 06:53:50;;;;;;;;;;;19.40;63.50;;;;;;5019886;28;19993;-71
2021/06/01 06:56:15;;;;;;;;;;;19.60;63.00;;;;;;5018666;28;20285;-71
2021/06/01 06:58:41;;;;;;;;;;;19.60;62.30;;;;;;5021687;28;19979;-71
2021/06/01 07:01:10;;;;;;;;;;;19.60;64.50;;;;;;5037666;28;19959;-69
2021/06/01 07:03:35;;;;;;;;;;;19.70;65.30;;;;;;5027356;28;19913;-71
2021/06/01 07:06:01;;;;;;;;;;;19.50;67.40;;;;;;5024194;28;19987;-71
2021/06/01 07:08:26;;;;;;;;;;;19.60;67.70;;;;;;5022034;28;20001;-72
2021/06/01 07:10:51;;;;;;;;;;;19.50;64.30;;;;;;5011501;28;19928;-71
2021/06/01 07:13:19;;;;;;;;;;;19.50;63.50;;;;;;5015061;28;20007;-70
2021/06/01 07:15:47;;;;;;;;;;;19.50;64.80;;;;;;5023774;28;20028;-70
2021/06/01 07:18:13;;;;;;;;;;;19.60;63.30;;;;;;5022289;28;19936;-70
2021/06/01 07:20:39;;;;;;;;;;;19.70;59.90;;;;;;5019876;28;19913;-73
2021/06/01 07:23:04;;;;;;;;;;;19.70;60.70;;;;;;5019641;28;20368;-71
2021/06/01 07:25:30;;;;;;;;;;;19.80;63.00;;;;;;5003116;28;20397;-70
2021/06/01 07:27:56;;;;;;;;;;;20.00;58.30;;;;;;5016227;28;19924;-70
2021/06/01 07:30:21;;;;;;;;;;;20.10;57.80;;;;;;5022960;28;19993;-70
2021/06/01 07:32:47;;;;;;;;;;;20.30;59.90;;;;;;5018546;28;20278;-71
2021/06/01 07:35:14;;;;;;;;;;;20.60;59.30;;;;;;5014112;28;19960;-70
2021/06/01 07:37:39;;;;;;;;;;;20.60;58.90;;;;;;5021981;28;19913;-71
2021/06/01 07:40:05;;;;;;;;;;;21.00;57.60;;;;;;5017552;28;19928;-70
2021/06/01 07:42:31;;;;;;;;;;;21.10;56.90;;;;;;5019916;28;20032;-71
2021/06/01 07:44:56;;;;;;;;;;;21.30;56.00;;;;;;5020956;28;20027;-71
2021/06/01 07:47:22;;;;;;;;;;;20.80;53.30;;;;;;5022066;28;19990;-71
2021/06/01 07:49:48;;;;;;;;;;;21.30;54.10;;;;;;5021971;28;19909;-71
2021/06/01 07:52:13;;;;;;;;;;;21.70;56.10;;;;;;5022098;28;19913;-70
2021/06/01 07:54:39;;;;;;;;;;;21.70;54.00;;;;;;5017603;28;20000;-71
2021/06/01 07:57:04;;;;;;;;;;;21.90;53.50;;;;;;5021045;28;19984;-71
2021/06/01 07:59:30;;;;;;;;;;;22.00;54.80;;;;;;5013401;28;19966;-71
2021/06/01 08:01:55;;;;;;;;;;;22.30;52.70;;;;;;5043227;28;20302;-71
2021/06/01 08:04:21;;;;;;;;;;;22.30;51.10;;;;;;5022402;28;19920;-71
2021/06/01 08:06:47;;;;;;;;;;;21.90;49.80;;;;;;5021010;28;20417;-71
2021/06/01 08:09:12;;;;;;;;;;;22.20;51.10;;;;;;5020280;28;19936;-72
2021/06/01 08:11:38;;;;;;;;;;;22.70;53.20;;;;;;5025796;28;20003;-72
2021/06/01 08:14:03;;;;;;;;;;;22.60;51.90;;;;;;5025730;28;19996;-70
2021/06/01 08:16:31;;;;;;;;;;;23.20;48.40;;;;;;5020021;28;20355;-71
2021/06/01 08:19:12;;;;;;;;;;;23.40;47.50;;;;;;5022548;28;19943;-71
2021/06/01 08:21:57;;;;;;;;;;;23.00;48.40;;;;;;5023831;28;19976;-71
2021/06/01 08:24:23;;;;;;;;;;;22.80;46.50;;;;;;5025701;28;20035;-72
2021/06/01 08:26:49;;;;;;;;;;;22.70;47.70;;;;;;5026097;28;19993;-70
2021/06/01 08:29:15;;;;;;;;;;;21.90;47.90;;;;;;5024031;28;20246;-71
2021/06/01 08:31:41;;;;;;;;;;;22.10;48.50;;;;;;5025567;28;20004;-71
2021/06/01 08:34:07;;;;;;;;;;;22.20;47.80;;;;;;5024998;28;19916;-72
2021/06/01 08:36:33;;;;;;;;;;;22.10;47.70;;;;;;5026355;28;19917;-71
2021/06/01 08:38:58;;;;;;;;;;;22.20;48.00;;;;;;5025266;28;19933;-70
2021/06/01 08:41:24;;;;;;;;;;;22.30;51.60;;;;;;5023502;28;20262;-71
2021/06/01 08:43:53;;;;;;;;;;;22.40;50.60;;;;;;5024942;28;19948;-71
2021/06/01 08:46:26;;;;;;;;;;;22.60;49.40;;;;;;5026197;28;19913;-71
2021/06/01 08:48:52;;;;;;;;;;;22.60;47.10;;;;;;5024673;28;20271;-72
2021/06/01 08:51:20;;;;;;;;;;;22.80;48.00;;;;;;5023398;28;20005;-71
2021/06/01 08:53:46;;;;;;;;;;;23.00;45.40;;;;;;5022111;28;20379;-70
2021/06/01 08:56:12;;;;;;;;;;;23.00;43.00;;;;;;5024297;28;19917;-70
2021/06/01 08:58:37;;;;;;;;;;;23.10;46.80;;;;;;5023981;28;19996;-71
2021/06/01 09:01:03;;;;;;;;;;;22.70;45.20;;;;;;5025619;28;19963;-71
2021/06/01 09:03:28;;;;;;;;;;;22.80;48.00;;;;;;5024725;28;20369;-71
2021/06/01 09:06:05;;;;;;;;;;;23.00;44.60;;;;;;5024744;28;20428;-71
2021/06/01 09:08:49;;;;;;;;;;;22.60;45.50;;;;;;5017490;28;20032;-70
2021/06/01 09:11:34;;;;;;;;;;;22.40;45.60;;;;;;5021113;28;19913;-71
2021/06/01 09:21:57;;;;;;;;;;;22.70;44.80;;;;;;5017040;28;19931;-71
2021/06/01 09:24:23;;;;;;;;;;;22.90;47.00;;;;;;5024868;28;20330;-71
2021/06/01 09:27:06;;;;;;;;;;;23.20;46.80;;;;;;5023159;28;19913;-71
2021/06/01 09:29:32;;;;;;;;;;;23.40;45.90;;;;;;5018956;28;19924;-70
2021/06/01 09:32:04;;;;;;;;;;;23.50;47.80;;;;;;5021747;28;19940;-72
2021/06/01 09:34:36;;;;;;;;;;;23.20;43.50;;;;;;5020736;28;19977;-72
2021/06/01 09:37:18;;;;;;;;;;;23.50;42.10;;;;;;5021417;28;19913;-70
2021/06/01 09:39:44;;;;;;;;;;;23.80;46.30;;;;;;5020411;28;19921;-71
2021/06/01 09:42:29;;;;;;;;;;;23.60;43.70;;;;;;5023261;28;19913;-71
2021/06/01 09:45:05;;;;;;;;;;;24.00;49.40;;;;;;5023860;28;20058;-71
2021/06/01 09:47:40;;;;;;;;;;;24.10;45.90;;;;;;5024295;28;20048;-71
2021/06/01 09:50:16;;;;;;;;;;;24.50;46.30;;;;;;5022850;28;20080;-70
2021/06/01 09:52:45;;;;;;;;;;;25.00;46.40;;;;;;5021369;28;20119;-70
2021/06/01 09:55:15;;;;;;;;;;;25.10;41.90;;;;;;5021652;28;19990;-71
2021/06/01 09:57:44;;;;;;;;;;;25.00;43.80;;;;;;5021777;28;20286;-71
2021/06/01 10:00:13;;;;;;;;;;;25.10;44.40;;;;;;5019669;28;20413;-72
2021/06/01 10:02:39;;;;;;;;;;;25.00;42.00;;;;;;5022126;28;20276;-70
2021/06/01 10:05:14;;;;;;;;;;;24.50;43.30;;;;;;5023760;28;19913;-70
2021/06/01 10:07:40;;;;;;;;;;;24.30;41.50;;;;;;5022845;28;20356;-70
2021/06/01 10:10:16;;;;;;;;;;;24.60;43.20;;;;;;5023438;28;19980;-72
2021/06/01 10:12:46;;;;;;;;;;;24.80;40.30;;;;;;5016721;28;20258;-71
2021/06/01 10:15:13;;;;;;;;;;;25.00;42.70;;;;;;5022249;28;19913;-71
2021/06/01 10:17:39;;;;;;;;;;;25.00;42.30;;;;;;5023337;28;20304;-71
2021/06/01 10:20:05;;;;;;;;;;;24.80;44.10;;;;;;5022612;28;20013;-72
2021/06/01 10:22:30;;;;;;;;;;;25.00;43.30;;;;;;5018914;28;19956;-71
2021/06/01 10:24:56;;;;;;;;;;;24.40;42.10;;;;;;5022748;28;19991;-71
2021/06/01 10:27:22;;;;;;;;;;;24.50;44.70;;;;;;5018325;28;20008;-72
2021/06/01 10:29:47;;;;;;;;;;;24.70;41.00;;;;;;5020134;28;19929;-71
2021/06/01 10:32:13;;;;;;;;;;;24.90;39.70;;;;;;5017637;28;20342;-70
2021/06/01 10:34:39;;;;;;;;;;;25.30;40.40;;;;;;5019997;28;19945;-71
2021/06/01 10:42:46;;;;;;;;;;;25.40;39.50;;;;;;5009662;28;19978;-70
2021/06/01 10:53:02;;;;;;;;;;;25.90;39.30;;;;;;5016385;28;19996;-70
2021/06/01 10:55:28;;;;;;;;;;;26.10;39.70;;;;;;5019171;28;19944;-73
2021/06/01 10:57:55;;;;;;;;;;;26.30;38.00;;;;;;5022296;28;20127;-72
2021/06/01 11:03:09;;;;;;;;;;;26.10;37.40;;;;;;5020941;28;19913;-72
2021/06/01 11:05:56;;;;;;;;;;;26.70;35.90;;;;;;5020120;28;19912;-71
2021/06/01 11:08:38;;;;;;;;;;;26.90;34.90;;;;;;5014084;28;20246;-70
2021/06/01 11:11:22;;;;;;;;;;;26.40;35.00;;;;;;5014621;28;19925;-72
2021/06/01 11:13:47;;;;;;;;;;;26.80;34.80;;;;;;5018564;28;19928;-72
2021/06/01 11:16:13;;;;;;;;;;;26.30;35.80;;;;;;5022305;28;20254;-71
2021/06/01 11:18:43;;;;;;;;;;;26.80;38.10;;;;;;5022149;28;19939;-72
2021/06/01 11:21:17;;;;;;;;;;;26.40;36.40;;;;;;5018444;28;19928;-72
2021/06/01 11:32:57;;;;;;;;;;;26.40;36.40;;;;;;5022101;28;19921;-73
2021/06/01 11:35:23;;;;;;;;;;;27.20;36.90;;;;;;5017658;28;19974;-70
2021/06/01 11:43:18;;;;;;;;;;;27.20;35.90;;;;;;5016870;28;20290;-72
2021/06/01 11:45:44;;;;;;;;;;;27.90;36.20;;;;;;5024393;28;19913;-71
2021/06/01 11:50:58;;;;;;;;;;;28.00;33.40;;;;;;5027252;28;19924;-70
2021/06/01 11:53:24;;;;;;;;;;;28.50;35.30;;;;;;5024906;28;19931;-72
2021/06/01 11:55:58;;;;;;;;;;;28.70;32.20;;;;;;5025489;28;19929;-72
2021/06/01 12:04:00;;;;;;;;;;;28.10;34.50;;;;;;5010182;28;20015;-73
2021/06/01 12:12:10;;;;;;;;;;;27.70;36.00;;;;;;5021456;28;20023;-70
2021/06/01 12:17:49;;;;;;;;;;;28.70;33.10;;;;;;5020699;28;19921;-72
2021/06/01 12:20:15;;;;;;;;;;;29.60;33.80;;;;;;5024226;28;20320;-72
2021/06/01 12:22:40;;;;;;;;;;;29.60;31.50;;;;;;5020412;28;19921;-71
2021/06/01 12:25:09;;;;;;;;;;;30.20;32.30;;;;;;5024382;28;20191;-72
2021/06/01 12:27:51;;;;;;;;;;;29.50;32.10;;;;;;5024406;28;20350;-72
2021/06/01 12:33:07;;;;;;;;;;;29.90;35.50;;;;;;5023073;28;19919;-72
2021/06/01 12:36:48;;;;;;;;;;;29.60;34.10;;;;;;5024427;28;19976;-72
2021/06/01 12:44:32;;;;;;;;;;;28.70;33.90;;;;;;5019533;28;20405;-71
2021/06/01 12:47:39;;;;;;;;;;;28.80;32.70;;;;;;5020412;28;19936;-72
2021/06/01 13:19:58;;;;;;;;;;;30.60;30.30;;;;;;5022525;28;20385;-71
2021/06/01 13:36:31;;;;;;;;;;;32.10;28.40;;;;;;5022361;28;19964;-72
2021/06/01 13:39:07;;;;;;;;;;;32.70;26.20;;;;;;5021450;28;19914;-71
2021/06/01 13:46:46;;;;;;;;;;;32.40;27.00;;;;;;5022573;28;20685;-72
2021/06/01 13:49:15;;;;;;;;;;;32.60;26.00;;;;;;5021977;28;19925;-72
2021/06/01 13:57:07;;;;;;;;;;;31.70;27.40;;;;;;5021508;28;19928;-73
2021/06/01 13:59:41;;;;;;;;;;;31.10;31.20;;;;;;5021903;28;20330;-72
2021/06/01 14:32:07;;;;;;;;;;;31.00;28.30;;;;;;5023533;28;19981;-71
2021/06/01 14:37:32;;;;;;;;;;;30.10;29.60;;;;;;5021652;28;20000;-73
2021/06/01 14:54:37;;;;;;;;;;;30.00;30.60;;;;;;5019201;28;19960;-72
2021/06/01 15:04:38;;;;;;;;;;;30.90;32.10;;;;;;5018310;28;20077;-72
2021/06/01 15:23:59;;;;;;;;;;;28.90;32.70;;;;;;5021072;28;19964;-71
2021/06/01 15:31:36;;;;;;;;;;;29.60;34.10;;;;;;5018344;28;20257;-72
2021/06/01 15:47:49;;;;;;;;;;;29.80;35.10;;;;;;5018532;28;19990;-71
2021/06/01 15:50:57;;;;;;;;;;;29.00;35.30;;;;;;5019416;28;20351;-71
2021/06/01 16:22:57;;;;;;;;;;;26.00;40.30;;;;;;5018005;28;19939;-71
2021/06/01 17:03:57;;;;;;;;;;;23.70;47.10;;;;;;5023121;28;20167;-71
2021/06/01 17:06:31;;;;;;;;;;;23.60;47.60;;;;;;5021930;28;20248;-71
2021/06/01 17:11:28;;;;;;;;;;;23.10;47.80;;;;;;5021412;28;19961;-70
2021/06/01 17:13:55;;;;;;;;;;;23.20;45.90;;;;;;5021245;28;19917;-71
2021/06/01 17:16:43;;;;;;;;;;;23.00;43.60;;;;;;5021091;28;19921;-71
2021/06/01 17:22:43;;;;;;;;;;;23.00;41.90;;;;;;5025665;28;19923;-71
2021/06/01 17:30:54;;;;;;;;;;;22.70;43.00;;;;;;5022226;28;19932;-71
2021/06/01 17:36:05;;;;;;;;;;;22.40;42.30;;;;;;5022692;28;19979;-70
2021/06/01 17:38:31;;;;;;;;;;;22.00;40.70;;;;;;5018655;28;19921;-71
2021/06/01 17:40:58;;;;;;;;;;;22.00;41.90;;;;;;5019693;28;19956;-71
2021/06/01 17:43:28;;;;;;;;;;;22.00;43.10;;;;;;5021024;28;19913;-70
2021/06/01 17:45:54;;;;;;;;;;;21.80;42.90;;;;;;5034580;28;20109;-71
2021/06/01 17:51:02;;;;;;;;;;;21.70;42.30;;;;;;5021451;28;19971;-71
2021/06/01 17:53:27;;;;;;;;;;;21.60;42.20;;;;;;5021470;28;19921;-71
2021/06/01 17:55:54;;;;;;;;;;;21.50;42.70;;;;;;5020507;28;20311;-70
2021/06/01 17:58:23;;;;;;;;;;;21.50;41.90;;;;;;5019757;28;19928;-71
2021/06/01 18:00:49;;;;;;;;;;;21.30;40.50;;;;;;5021871;28;20282;-71
2021/06/01 18:03:16;;;;;;;;;;;21.00;41.50;;;;;;5020659;28;19913;-71
2021/06/01 18:05:43;;;;;;;;;;;21.00;42.30;;;;;;5022525;28;19991;-71
2021/06/01 18:08:55;;;;;;;;;;;20.70;40.80;;;;;;5020329;28;20267;-70
2021/06/01 18:11:35;;;;;;;;;;;20.80;42.30;;;;;;5016254;28;20223;-71
2021/06/01 19:24:47;;;;;;;;;;;17.90;38.30;;;;;;5020383;28;19917;-70
2021/06/01 19:51:57;;;;;;;;;;;17.40;42.10;;;;;;5020432;28;19909;-70
2021/06/01 19:54:23;;;;;;;;;;;17.30;43.00;;;;;;5018700;28;19975;-69
2021/06/01 19:56:49;;;;;;;;;;;17.20;43.50;;;;;;5018541;28;19957;-70
2021/06/01 19:59:16;;;;;;;;;;;17.20;43.10;;;;;;5020502;28;20366;-69
2021/06/01 20:01:42;;;;;;;;;;;17.20;43.90;;;;;;5019317;28;19929;-70
2021/06/01 20:04:07;;;;;;;;;;;17.10;45.40;;;;;;5018149;28;20325;-69
2021/06/01 20:06:33;;;;;;;;;;;17.10;45.50;;;;;;5022598;28;19917;-70
2021/06/01 20:08:59;;;;;;;;;;;17.00;46.30;;;;;;5023373;28;19921;-70
2021/06/01 20:11:26;;;;;;;;;;;17.00;47.00;;;;;;5024334;28;19940;-69
2021/06/01 20:13:51;;;;;;;;;;;16.90;46.10;;;;;;5023682;28;19982;-69
2021/06/01 20:16:21;;;;;;;;;;;16.90;47.00;;;;;;5022248;28;19928;-70
2021/06/01 20:18:47;;;;;;;;;;;16.80;46.60;;;;;;5021411;28;19927;-70
2021/06/01 20:21:13;;;;;;;;;;;16.80;48.10;;;;;;5023222;28;19917;-67
2021/06/01 20:23:40;;;;;;;;;;;16.80;48.00;;;;;;5023156;28;19924;-69
2021/06/01 20:26:09;;;;;;;;;;;16.70;47.90;;;;;;5022319;28;19913;-69
2021/06/01 20:28:38;;;;;;;;;;;16.70;48.20;;;;;;5036502;28;19996;-69
2021/06/01 20:31:07;;;;;;;;;;;16.70;49.20;;;;;;5022547;28;19925;-69
2021/06/01 20:33:37;;;;;;;;;;;16.70;48.10;;;;;;5021314;28;19921;-69
2021/06/01 20:36:03;;;;;;;;;;;16.60;48.60;;;;;;5023432;28;19947;-68
2021/06/01 20:38:28;;;;;;;;;;;16.60;49.20;;;;;;5021053;28;19990;-69
2021/06/01 20:40:55;;;;;;;;;;;16.60;49.70;;;;;;5022255;28;20024;-68
2021/06/01 20:43:21;;;;;;;;;;;16.50;50.90;;;;;;5022816;28;19917;-68
2021/06/01 20:45:47;;;;;;;;;;;16.50;51.20;;;;;;5021755;28;19924;-69
2021/06/01 20:48:21;;;;;;;;;;;16.50;51.70;;;;;;5023029;28;20003;-69
2021/06/01 20:50:47;;;;;;;;;;;16.50;50.70;;;;;;5020403;28;19921;-69
2021/06/01 20:53:13;;;;;;;;;;;16.50;50.60;;;;;;5020244;28;19917;-69
2021/06/01 20:55:40;;;;;;;;;;;16.40;51.70;;;;;;5022145;28;19917;-69
2021/06/01 20:58:08;;;;;;;;;;;16.40;51.40;;;;;;5017141;28;19955;-70